Pride, Louisiana
Current Conditions -  °F | °C
As of 8:53 AM on Monday 24 Nov 2014 (Local Time) from KBTR Reporting Station
Clear Clear  
Wind Chill: 58°   Ceiling: Unl
Heat Index: 58°   Visibility: 10mi
Dew Point: 47°   Wind: 7mph
Humidity: 67%   Direction: 320°NW
Pressure: 29.93"   Gusts: 17mph
Location:  30.69°N, 90.98°W
Report Text: KBTR 241453Z 32006G15KT 10SM CLR 14/08 A2993 RMK AO2 SLP135 T01440083 53041
Loading
Personal Weather Stations






























Interactive Weather Map New forecast layout! Learn more

10-Day Weather Forecast

Advertisements
Track Severe Weather on mobile